sensor_id;sensor_type;location;lat;lon;timestamp;pressure;altitude;pressure_sealevel;temperature;humidity
54453;BME280;40363;52.270;10.546;2023-03-18T00:00:58;76076.19;;;-147.06;55.40
54453;BME280;40363;52.270;10.546;2023-03-18T00:03:25;76082.34;;;-147.06;55.69
54453;BME280;40363;52.270;10.546;2023-03-18T00:06:01;76080.28;;;-147.06;55.40
54453;BME280;40363;52.270;10.546;2023-03-18T00:08:29;76080.28;;;-147.06;55.49
54453;BME280;40363;52.270;10.546;2023-03-18T00:10:56;76082.34;;;-147.06;55.35
54453;BME280;40363;52.270;10.546;2023-03-18T00:13:25;76070.00;;;-147.06;55.21
54453;BME280;40363;52.270;10.546;2023-03-18T00:15:52;76065.91;;;-147.06;55.48
54453;BME280;40363;52.270;10.546;2023-03-18T00:18:19;76094.69;;;-147.06;55.38
54453;BME280;40363;52.270;10.546;2023-03-18T00:20:45;76098.78;;;-147.06;55.46
54453;BME280;40363;52.270;10.546;2023-03-18T00:23:12;76125.50;;;-147.06;56.69
54453;BME280;40363;52.270;10.546;2023-03-18T00:25:38;76139.91;;;-147.06;56.74
54453;BME280;40363;52.270;10.546;2023-03-18T00:28:06;76144.00;;;-147.06;57.09
54453;BME280;40363;52.270;10.546;2023-03-18T00:30:37;76148.13;;;-147.06;57.06
54453;BME280;40363;52.270;10.546;2023-03-18T00:33:04;76141.94;;;-147.06;57.31
54453;BME280;40363;52.270;10.546;2023-03-18T00:35:31;76137.84;;;-147.06;57.89
54453;BME280;40363;52.270;10.546;2023-03-18T00:37:57;76131.69;;;-147.06;57.34
54453;BME280;40363;52.270;10.546;2023-03-18T00:40:24;76121.41;;;-147.06;56.77
54453;BME280;40363;52.270;10.546;2023-03-18T00:42:55;76102.91;;;-147.06;57.30
54453;BME280;40363;52.270;10.546;2023-03-18T00:45:32;76096.72;;;-147.06;56.55
54453;BME280;40363;52.270;10.546;2023-03-18T00:48:00;76088.50;;;-147.06;56.11
54453;BME280;40363;52.270;10.546;2023-03-18T00:50:28;76092.63;;;-147.06;57.59
54453;BME280;40363;52.270;10.546;2023-03-18T00:52:54;76096.72;;;-147.06;57.39
54453;BME280;40363;52.270;10.546;2023-03-18T00:55:21;76100.84;;;-147.06;57.78
54453;BME280;40363;52.270;10.546;2023-03-18T00:57:48;76102.91;;;-147.06;57.11
54453;BME280;40363;52.270;10.546;2023-03-18T01:00:16;76088.50;;;-147.06;56.38
54453;BME280;40363;52.270;10.546;2023-03-18T01:02:43;76074.13;;;-147.06;55.18
54453;BME280;40363;52.270;10.546;2023-03-18T01:05:15;76061.78;;;-147.06;55.09
54453;BME280;40363;52.270;10.546;2023-03-18T01:07:41;76059.75;;;-147.06;54.88
54453;BME280;40363;52.270;10.546;2023-03-18T01:10:10;76043.31;;;-147.06;54.57
54453;BME280;40363;52.270;10.546;2023-03-18T01:12:37;76041.25;;;-147.06;53.79
54453;BME280;40363;52.270;10.546;2023-03-18T01:15:06;76037.13;;;-147.06;53.46
54453;BME280;40363;52.270;10.546;2023-03-18T01:17:34;76026.84;;;-147.06;53.26
54453;BME280;40363;52.270;10.546;2023-03-18T01:20:02;76016.59;;;-147.06;52.53
54453;BME280;40363;52.270;10.546;2023-03-18T01:22:30;76004.25;;;-147.06;52.29
54453;BME280;40363;52.270;10.546;2023-03-18T01:24:57;76000.16;;;-147.06;51.89
54453;BME280;40363;52.270;10.546;2023-03-18T01:27:23;75996.03;;;-147.06;51.97
54453;BME280;40363;52.270;10.546;2023-03-18T01:29:51;75991.91;;;-147.06;51.77
54453;BME280;40363;52.270;10.546;2023-03-18T01:32:17;75989.88;;;-147.06;51.80
54453;BME280;40363;52.270;10.546;2023-03-18T01:34:44;75991.91;;;-147.06;51.55
54453;BME280;40363;52.270;10.546;2023-03-18T01:37:10;75983.69;;;-147.06;51.83
54453;BME280;40363;52.270;10.546;2023-03-18T01:39:39;75987.81;;;-147.06;51.53
54453;BME280;40363;52.270;10.546;2023-03-18T01:42:06;75991.91;;;-147.06;51.39
54453;BME280;40363;52.270;10.546;2023-03-18T01:44:33;75996.03;;;-147.06;51.59
54453;BME280;40363;52.270;10.546;2023-03-18T01:47:00;75996.03;;;-147.06;51.62
54453;BME280;40363;52.270;10.546;2023-03-18T01:49:28;75991.91;;;-147.06;51.45
54453;BME280;40363;52.270;10.546;2023-03-18T01:52:03;76000.16;;;-147.06;51.53
54453;BME280;40363;52.270;10.546;2023-03-18T01:54:33;75993.97;;;-147.06;51.67
54453;BME280;40363;52.270;10.546;2023-03-18T01:57:02;75998.09;;;-147.06;51.62
54453;BME280;40363;52.270;10.546;2023-03-18T01:59:32;75996.03;;;-147.06;51.74
54453;BME280;40363;52.270;10.546;2023-03-18T02:02:04;75996.03;;;-147.06;51.62
54453;BME280;40363;52.270;10.546;2023-03-18T02:04:33;76004.25;;;-147.06;51.86
54453;BME280;40363;52.270;10.546;2023-03-18T02:07:02;76000.16;;;-147.06;51.77
54453;BME280;40363;52.270;10.546;2023-03-18T02:09:29;76008.38;;;-147.06;52.03
54453;BME280;40363;52.270;10.546;2023-03-18T02:11:56;76008.38;;;-147.06;52.12
54453;BME280;40363;52.270;10.546;2023-03-18T02:14:25;76004.25;;;-147.06;52.19
54453;BME280;40363;52.270;10.546;2023-03-18T02:16:54;76004.25;;;-147.06;52.34
54453;BME280;40363;52.270;10.546;2023-03-18T02:19:36;76004.25;;;-147.06;52.41
54453;BME280;40363;52.270;10.546;2023-03-18T02:22:17;76006.31;;;-147.06;52.55
54453;BME280;40363;52.270;10.546;2023-03-18T02:24:56;76018.63;;;-147.06;52.83
54453;BME280;40363;52.270;10.546;2023-03-18T02:27:30;76010.41;;;-147.06;52.71
54453;BME280;40363;52.270;10.546;2023-03-18T02:30:00;76016.59;;;-147.06;52.82
54453;BME280;40363;52.270;10.546;2023-03-18T02:32:30;76020.69;;;-147.06;53.01
54453;BME280;40363;52.270;10.546;2023-03-18T02:35:00;76022.75;;;-147.06;53.25
54453;BME280;40363;52.270;10.546;2023-03-18T02:37:29;76028.91;;;-147.06;53.31
54453;BME280;40363;52.270;10.546;2023-03-18T02:40:11;76033.03;;;-147.06;53.34
54453;BME280;40363;52.270;10.546;2023-03-18T02:42:39;76041.25;;;-147.06;53.52
54453;BME280;40363;52.270;10.546;2023-03-18T02:45:09;76037.13;;;-147.06;53.65
54453;BME280;40363;52.270;10.546;2023-03-18T02:47:39;76037.13;;;-147.06;53.79
54453;BME280;40363;52.270;10.546;2023-03-18T02:50:08;76030.97;;;-147.06;53.91
54453;BME280;40363;52.270;10.546;2023-03-18T02:52:35;76037.13;;;-147.06;53.87
54453;BME280;40363;52.270;10.546;2023-03-18T02:55:02;76041.25;;;-147.06;53.81
54453;BME280;40363;52.270;10.546;2023-03-18T02:57:29;76041.25;;;-147.06;53.96
54453;BME280;40363;52.270;10.546;2023-03-18T02:59:57;76037.13;;;-147.06;54.02
54453;BME280;40363;52.270;10.546;2023-03-18T03:02:23;76053.56;;;-147.06;54.37
54453;BME280;40363;52.270;10.546;2023-03-18T03:04:50;76049.47;;;-147.06;54.20
54453;BME280;40363;52.270;10.546;2023-03-18T03:07:16;76045.34;;;-147.06;54.35
54453;BME280;40363;52.270;10.546;2023-03-18T03:09:43;76045.34;;;-147.06;54.65
54453;BME280;40363;52.270;10.546;2023-03-18T03:12:10;76049.47;;;-147.06;54.52
54453;BME280;40363;52.270;10.546;2023-03-18T03:14:36;76043.31;;;-147.06;54.73
54453;BME280;40363;52.270;10.546;2023-03-18T03:20:26;76047.41;;;-147.06;54.80
54453;BME280;40363;52.270;10.546;2023-03-18T03:22:52;76049.47;;;-147.06;54.87
54453;BME280;40363;52.270;10.546;2023-03-18T03:25:19;76041.25;;;-147.06;54.93
54453;BME280;40363;52.270;10.546;2023-03-18T03:27:46;76049.47;;;-147.06;54.83
54453;BME280;40363;52.270;10.546;2023-03-18T03:30:14;76041.25;;;-147.06;54.88
54453;BME280;40363;52.270;10.546;2023-03-18T03:32:43;76043.31;;;-147.06;55.15
54453;BME280;40363;52.270;10.546;2023-03-18T03:35:11;76041.25;;;-147.06;55.27
54453;BME280;40363;52.270;10.546;2023-03-18T03:37:40;76041.25;;;-147.06;55.49
54453;BME280;40363;52.270;10.546;2023-03-18T03:40:09;76041.25;;;-147.06;55.85
54453;BME280;40363;52.270;10.546;2023-03-18T03:42:36;76047.41;;;-147.06;55.97
54453;BME280;40363;52.270;10.546;2023-03-18T03:45:04;76053.56;;;-147.06;56.15
54453;BME280;40363;52.270;10.546;2023-03-18T03:47:31;76053.56;;;-147.06;56.42
54453;BME280;40363;52.270;10.546;2023-03-18T03:49:58;76055.63;;;-147.06;56.83
54453;BME280;40363;52.270;10.546;2023-03-18T03:52:25;76053.56;;;-147.06;56.92
54453;BME280;40363;52.270;10.546;2023-03-18T03:54:54;76057.69;;;-147.06;57.15
54453;BME280;40363;52.270;10.546;2023-03-18T03:57:21;76061.78;;;-147.06;57.13
54453;BME280;40363;52.270;10.546;2023-03-18T03:59:48;76065.91;;;-147.06;57.57
54453;BME280;40363;52.270;10.546;2023-03-18T04:02:15;76061.78;;;-147.06;57.55
54453;BME280;40363;52.270;10.546;2023-03-18T04:04:42;76074.13;;;-147.06;57.72
54453;BME280;40363;52.270;10.546;2023-03-18T04:07:09;76076.19;;;-147.06;57.98
54453;BME280;40363;52.270;10.546;2023-03-18T04:09:36;76067.97;;;-147.06;58.11
54453;BME280;40363;52.270;10.546;2023-03-18T04:12:05;76059.75;;;-147.06;58.33
54453;BME280;40363;52.270;10.546;2023-03-18T04:14:32;76061.78;;;-147.06;58.83
54453;BME280;40363;52.270;10.546;2023-03-18T04:16:59;76057.69;;;-147.06;59.58
54453;BME280;40363;52.270;10.546;2023-03-18T04:19:26;76057.69;;;-147.06;60.17
54453;BME280;40363;52.270;10.546;2023-03-18T04:21:53;76072.06;;;-147.06;61.30
54453;BME280;40363;52.270;10.546;2023-03-18T04:24:21;76080.28;;;-147.06;62.29
54453;BME280;40363;52.270;10.546;2023-03-18T04:26:48;76084.41;;;-147.06;63.86
54453;BME280;40363;52.270;10.546;2023-03-18T04:29:16;76090.56;;;-147.06;66.40
54453;BME280;40363;52.270;10.546;2023-03-18T04:31:43;76107.00;;;-147.06;67.93
54453;BME280;40363;52.270;10.546;2023-03-18T04:34:10;76113.19;;;-147.06;69.20
54453;BME280;40363;52.270;10.546;2023-03-18T04:36:36;76117.28;;;-147.06;69.88
54453;BME280;40363;52.270;10.546;2023-03-18T04:39:03;76123.44;;;-147.06;69.95
54453;BME280;40363;52.270;10.546;2023-03-18T04:41:30;76125.50;;;-147.06;70.97
54453;BME280;40363;52.270;10.546;2023-03-18T04:43:57;76123.44;;;-147.06;71.30
54453;BME280;40363;52.270;10.546;2023-03-18T04:46:24;76119.34;;;-147.06;71.44
54453;BME280;40363;52.270;10.546;2023-03-18T04:48:54;76123.44;;;-147.06;71.42
54453;BME280;40363;52.270;10.546;2023-03-18T04:51:22;76123.44;;;-147.06;71.44
54453;BME280;40363;52.270;10.546;2023-03-18T04:53:49;76123.44;;;-147.06;71.72
54453;BME280;40363;52.270;10.546;2023-03-18T04:56:15;76131.69;;;-147.06;72.06
54453;BME280;40363;52.270;10.546;2023-03-18T04:58:42;76137.84;;;-147.06;72.75
54453;BME280;40363;52.270;10.546;2023-03-18T05:01:09;76139.91;;;-147.06;72.08
54453;BME280;40363;52.270;10.546;2023-03-18T05:03:38;76137.84;;;-147.06;72.46
54453;BME280;40363;52.270;10.546;2023-03-18T05:06:06;76137.84;;;-147.06;72.47
54453;BME280;40363;52.270;10.546;2023-03-18T05:08:33;76144.00;;;-147.06;72.68
54453;BME280;40363;52.270;10.546;2023-03-18T05:11:00;76152.22;;;-147.06;73.06
54453;BME280;40363;52.270;10.546;2023-03-18T05:13:27;76154.28;;;-147.06;73.81
54453;BME280;40363;52.270;10.546;2023-03-18T05:15:54;76154.28;;;-147.06;74.18
54453;BME280;40363;52.270;10.546;2023-03-18T05:18:20;76154.28;;;-147.06;74.51
54453;BME280;40363;52.270;10.546;2023-03-18T05:20:48;76148.13;;;-147.06;74.79
54453;BME280;40363;52.270;10.546;2023-03-18T05:23:15;76160.44;;;-147.06;75.19
54453;BME280;40363;52.270;10.546;2023-03-18T05:25:41;76160.44;;;-147.06;75.48
54453;BME280;40363;52.270;10.546;2023-03-18T05:28:08;76158.38;;;-147.06;75.73
54453;BME280;40363;52.270;10.546;2023-03-18T05:30:34;76156.34;;;-147.06;76.09
54453;BME280;40363;52.270;10.546;2023-03-18T05:33:03;76156.34;;;-147.06;76.34
54453;BME280;40363;52.270;10.546;2023-03-18T05:35:30;76170.72;;;-147.06;76.71
54453;BME280;40363;52.270;10.546;2023-03-18T05:37:58;76176.88;;;-147.06;77.00
54453;BME280;40363;52.270;10.546;2023-03-18T05:40:24;76174.84;;;-147.06;77.08
54453;BME280;40363;52.270;10.546;2023-03-18T05:42:51;76181.00;;;-147.06;77.41
54453;BME280;40363;52.270;10.546;2023-03-18T05:45:17;76174.84;;;-147.06;77.48
54453;BME280;40363;52.270;10.546;2023-03-18T05:47:44;76195.38;;;-147.06;77.86
54453;BME280;40363;52.270;10.546;2023-03-18T05:50:11;76207.72;;;-147.06;78.47
54453;BME280;40363;52.270;10.546;2023-03-18T05:52:38;76203.59;;;-147.06;78.06
54453;BME280;40363;52.270;10.546;2023-03-18T05:55:06;76195.38;;;-147.06;77.87
54453;BME280;40363;52.270;10.546;2023-03-18T05:57:33;76195.38;;;-147.06;77.73
54453;BME280;40363;52.270;10.546;2023-03-18T06:00:00;76183.06;;;-147.06;77.09
54453;BME280;40363;52.270;10.546;2023-03-18T06:02:27;76176.88;;;-147.06;76.70
54453;BME280;40363;52.270;10.546;2023-03-18T06:04:53;76172.78;;;-147.06;76.41
54453;BME280;40363;52.270;10.546;2023-03-18T06:07:20;76160.44;;;-147.06;75.74
54453;BME280;40363;52.270;10.546;2023-03-18T06:09:47;76164.56;;;-147.06;75.65
54453;BME280;40363;52.270;10.546;2023-03-18T06:12:15;76160.44;;;-147.06;75.45
54453;BME280;40363;52.270;10.546;2023-03-18T06:14:44;76156.34;;;-147.06;75.36
54453;BME280;40363;52.270;10.546;2023-03-18T06:17:10;76156.34;;;-147.06;74.52
54453;BME280;40363;52.270;10.546;2023-03-18T06:19:38;76154.28;;;-147.06;74.94
54453;BME280;40363;52.270;10.546;2023-03-18T06:22:04;76164.56;;;-147.06;74.73
54453;BME280;40363;52.270;10.546;2023-03-18T06:24:31;76160.44;;;-147.06;74.32
54453;BME280;40363;52.270;10.546;2023-03-18T06:26:57;76156.34;;;-147.06;74.42
54453;BME280;40363;52.270;10.546;2023-03-18T06:29:25;76139.91;;;-147.06;73.62
54453;BME280;40363;52.270;10.546;2023-03-18T06:31:52;76146.06;;;-147.06;74.07
54453;BME280;40363;52.270;10.546;2023-03-18T06:34:18;76148.13;;;-147.06;73.88
54453;BME280;40363;52.270;10.546;2023-03-18T06:36:45;76146.06;;;-147.06;73.24
54453;BME280;40363;52.270;10.546;2023-03-18T06:41:39;76125.50;;;-147.06;72.44
54453;BME280;40363;52.270;10.546;2023-03-18T06:44:05;76119.34;;;-147.06;72.01
54453;BME280;40363;52.270;10.546;2023-03-18T06:46:33;76107.00;;;-147.06;71.53
54453;BME280;40363;52.270;10.546;2023-03-18T06:49:00;76096.72;;;-147.06;71.26
54453;BME280;40363;52.270;10.546;2023-03-18T06:51:26;76096.72;;;-147.06;71.24
54453;BME280;40363;52.270;10.546;2023-03-18T06:53:53;76078.25;;;-147.06;70.43
54453;BME280;40363;52.270;10.546;2023-03-18T06:56:21;76051.53;;;-147.06;69.38
54453;BME280;40363;52.270;10.546;2023-03-18T06:58:48;75987.81;;;-147.06;68.11
54453;BME280;40363;52.270;10.546;2023-03-18T07:01:14;75959.03;;;-147.06;66.23
54453;BME280;40363;52.270;10.546;2023-03-18T07:03:43;75932.31;;;-147.06;65.50
54453;BME280;40363;52.270;10.546;2023-03-18T07:06:09;75874.78;;;-147.06;64.04
54453;BME280;40363;52.270;10.546;2023-03-18T07:08:36;75848.06;;;-147.06;63.25
54453;BME280;40363;52.270;10.546;2023-03-18T07:11:06;75835.75;;;-147.06;62.45
54453;BME280;40363;52.270;10.546;2023-03-18T07:13:32;75909.72;;;-147.06;64.24
54453;BME280;40363;52.270;10.546;2023-03-18T07:16:00;75948.75;;;-147.06;65.52
54453;BME280;40363;52.270;10.546;2023-03-18T07:18:27;75975.47;;;-147.06;66.41
54453;BME280;40363;52.270;10.546;2023-03-18T07:20:54;75985.75;;;-147.06;67.06
54453;BME280;40363;52.270;10.546;2023-03-18T07:23:21;75996.03;;;-147.06;67.68
54453;BME280;40363;52.270;10.546;2023-03-18T07:25:48;75989.88;;;-147.06;67.56
54453;BME280;40363;52.270;10.546;2023-03-18T07:28:14;75975.47;;;-147.06;67.37
54453;BME280;40363;52.270;10.546;2023-03-18T07:30:41;75965.22;;;-147.06;67.28
54453;BME280;40363;52.270;10.546;2023-03-18T07:33:07;75973.44;;;-147.06;67.49
54453;BME280;40363;52.270;10.546;2023-03-18T07:35:34;75963.16;;;-147.06;67.72
54453;BME280;40363;52.270;10.546;2023-03-18T07:38:03;75979.59;;;-147.06;68.22
54453;BME280;40363;52.270;10.546;2023-03-18T07:40:30;75991.91;;;-147.06;69.20
54453;BME280;40363;52.270;10.546;2023-03-18T07:42:56;75987.81;;;-147.06;69.43
54453;BME280;40363;52.270;10.546;2023-03-18T07:45:23;75985.75;;;-147.06;69.63
54453;BME280;40363;52.270;10.546;2023-03-18T07:47:49;75971.38;;;-147.06;69.25
54453;BME280;40363;52.270;10.546;2023-03-18T07:50:16;75950.81;;;-147.06;69.60
54453;BME280;40363;52.270;10.546;2023-03-18T07:52:43;75891.22;;;-147.06;68.28
54453;BME280;40363;52.270;10.546;2023-03-18T07:55:11;75860.41;;;-147.06;67.69
54453;BME280;40363;52.270;10.546;2023-03-18T07:57:38;75872.72;;;-147.06;68.03
54453;BME280;40363;52.270;10.546;2023-03-18T08:00:07;75885.06;;;-147.06;69.19
54453;BME280;40363;52.270;10.546;2023-03-18T08:02:34;75889.16;;;-147.06;69.74
54453;BME280;40363;52.270;10.546;2023-03-18T08:05:01;75901.50;;;-147.06;69.71
54453;BME280;40363;52.270;10.546;2023-03-18T08:07:28;75866.56;;;-147.06;69.04
54453;BME280;40363;52.270;10.546;2023-03-18T08:09:55;75724.75;;;-147.06;65.12
54453;BME280;40363;52.270;10.546;2023-03-18T08:12:23;75548.03;;;-147.06;60.02
54453;BME280;40363;52.270;10.546;2023-03-18T08:14:49;75406.25;;;-147.06;56.17
54453;BME280;40363;52.270;10.546;2023-03-18T08:17:16;75373.38;;;-147.06;54.75
54453;BME280;40363;52.270;10.546;2023-03-18T08:19:43;75486.41;;;-147.06;56.77
54453;BME280;40363;52.270;10.546;2023-03-18T08:22:11;75607.63;;;-147.06;59.70
54453;BME280;40363;52.270;10.546;2023-03-18T08:24:38;75683.66;;;-147.06;62.33
54453;BME280;40363;52.270;10.546;2023-03-18T08:27:05;75720.66;;;-147.06;63.48
54453;BME280;40363;52.270;10.546;2023-03-18T08:29:33;75759.69;;;-147.06;65.14
54453;BME280;40363;52.270;10.546;2023-03-18T08:32:00;75784.38;;;-147.06;66.07
54453;BME280;40363;52.270;10.546;2023-03-18T08:34:26;75817.25;;;-147.06;66.93
54453;BME280;40363;52.270;10.546;2023-03-18T08:36:53;75825.47;;;-147.06;67.63
54453;BME280;40363;52.270;10.546;2023-03-18T08:39:20;75829.56;;;-147.06;67.67
54453;BME280;40363;52.270;10.546;2023-03-18T08:41:47;75833.69;;;-147.06;68.26
54453;BME280;40363;52.270;10.546;2023-03-18T08:44:14;75827.50;;;-147.06;68.22
54453;BME280;40363;52.270;10.546;2023-03-18T08:46:42;75798.75;;;-147.06;67.95
54453;BME280;40363;52.270;10.546;2023-03-18T08:49:09;75802.84;;;-147.06;67.50
54453;BME280;40363;52.270;10.546;2023-03-18T08:51:36;75780.25;;;-147.06;66.93
54453;BME280;40363;52.270;10.546;2023-03-18T08:54:04;75619.97;;;-147.06;62.76
54453;BME280;40363;52.270;10.546;2023-03-18T08:56:31;75539.81;;;-147.06;60.11
54453;BME280;40363;52.270;10.546;2023-03-18T08:58:58;75457.63;;;-147.06;57.71
54453;BME280;40363;52.270;10.546;2023-03-18T09:01:25;75541.88;;;-147.06;58.85
54453;BME280;40363;52.270;10.546;2023-03-18T09:03:53;75599.41;;;-147.06;60.40
54453;BME280;40363;52.270;10.546;2023-03-18T09:06:22;75671.34;;;-147.06;62.41
54453;BME280;40363;52.270;10.546;2023-03-18T09:08:48;75683.66;;;-147.06;62.89
54453;BME280;40363;52.270;10.546;2023-03-18T09:11:15;75675.44;;;-147.06;62.89
54453;BME280;40363;52.270;10.546;2023-03-18T09:13:42;75710.38;;;-147.06;64.00
54453;BME280;40363;52.270;10.546;2023-03-18T09:16:09;75745.31;;;-147.06;64.95
54453;BME280;40363;52.270;10.546;2023-03-18T09:18:36;75700.09;;;-147.06;63.90
54453;BME280;40363;52.270;10.546;2023-03-18T09:21:05;75607.63;;;-147.06;61.59
54453;BME280;40363;52.270;10.546;2023-03-18T09:23:32;75605.56;;;-147.06;61.41
54453;BME280;40363;52.270;10.546;2023-03-18T09:25:59;75636.41;;;-147.06;61.41
54453;BME280;40363;52.270;10.546;2023-03-18T09:28:26;75537.78;;;-147.06;58.76
54453;BME280;40363;52.270;10.546;2023-03-18T09:30:53;75659.00;;;-147.06;61.64
54453;BME280;40363;52.270;10.546;2023-03-18T09:33:19;75634.34;;;-147.06;61.59
54453;BME280;40363;52.270;10.546;2023-03-18T09:35:46;75486.41;;;-147.06;57.45
54453;BME280;40363;52.270;10.546;2023-03-18T09:38:28;75453.53;;;-147.06;56.63
54453;BME280;40363;52.270;10.546;2023-03-18T09:41:02;75511.06;;;-147.06;57.37
54453;BME280;40363;52.270;10.546;2023-03-18T09:43:51;75603.53;;;-147.06;59.09
54453;BME280;40363;52.270;10.546;2023-03-18T09:46:27;75654.91;;;-147.06;61.00
54453;BME280;40363;52.270;10.546;2023-03-18T09:49:23;75562.44;;;-147.06;59.16
54453;BME280;40363;52.270;10.546;2023-03-18T09:51:58;75558.31;;;-147.06;58.96
54453;BME280;40363;52.270;10.546;2023-03-18T09:54:36;75603.53;;;-147.06;59.91
54453;BME280;40363;52.270;10.546;2023-03-18T09:57:23;75570.66;;;-147.06;59.83
54453;BME280;40363;52.270;10.546;2023-03-18T09:59:53;75560.38;;;-147.06;58.75
54453;BME280;40363;52.270;10.546;2023-03-18T10:02:22;75566.53;;;-147.06;58.59
54453;BME280;40363;52.270;10.546;2023-03-18T10:04:53;75611.75;;;-147.06;59.94
54453;BME280;40363;52.270;10.546;2023-03-18T10:07:24;75609.69;;;-147.06;59.96
54453;BME280;40363;52.270;10.546;2023-03-18T10:09:58;75628.19;;;-147.06;60.43
54453;BME280;40363;52.270;10.546;2023-03-18T10:12:30;75646.69;;;-147.06;60.91
54453;BME280;40363;52.270;10.546;2023-03-18T10:15:09;75691.88;;;-147.06;62.29
54453;BME280;40363;52.270;10.546;2023-03-18T10:17:41;75687.78;;;-147.06;62.44
54453;BME280;40363;52.270;10.546;2023-03-18T10:20:15;75700.09;;;-147.06;63.07
54453;BME280;40363;52.270;10.546;2023-03-18T10:23:01;75700.09;;;-147.06;63.03
54453;BME280;40363;52.270;10.546;2023-03-18T10:25:35;75724.75;;;-147.06;63.59
54453;BME280;40363;52.270;10.546;2023-03-18T10:28:13;75737.09;;;-147.06;63.35
54453;BME280;40363;52.270;10.546;2023-03-18T10:30:53;75728.88;;;-147.06;62.77
54453;BME280;40363;52.270;10.546;2023-03-18T10:33:33;75628.19;;;-147.06;60.18
54453;BME280;40363;52.270;10.546;2023-03-18T10:36:04;75488.44;;;-147.06;56.31
54453;BME280;40363;52.270;10.546;2023-03-18T10:38:36;75375.44;;;-147.06;53.98
54453;BME280;40363;52.270;10.546;2023-03-18T10:41:14;75293.25;;;-147.06;51.55
54453;BME280;40363;52.270;10.546;2023-03-18T10:43:43;75293.25;;;-147.06;51.42
54453;BME280;40363;52.270;10.546;2023-03-18T10:46:14;75350.78;;;-147.06;51.42
54453;BME280;40363;52.270;10.546;2023-03-18T10:48:43;75465.84;;;-147.06;53.82
54453;BME280;40363;52.270;10.546;2023-03-18T10:51:15;75336.41;;;-147.06;51.85
54453;BME280;40363;52.270;10.546;2023-03-18T10:53:52;75295.28;;;-147.06;50.32
54453;BME280;40363;52.270;10.546;2023-03-18T10:56:22;75334.34;;;-147.06;50.74
54453;BME280;40363;52.270;10.546;2023-03-18T10:58:49;75356.94;;;-147.06;50.61
54453;BME280;40363;52.270;10.546;2023-03-18T11:01:19;75422.69;;;-147.06;51.73
54453;BME280;40363;52.270;10.546;2023-03-18T11:03:49;75467.91;;;-147.06;52.99
54453;BME280;40363;52.270;10.546;2023-03-18T11:06:20;75486.41;;;-147.06;53.09
54453;BME280;40363;52.270;10.546;2023-03-18T11:08:59;75570.66;;;-147.06;54.94
54453;BME280;40363;52.270;10.546;2023-03-18T11:11:29;75593.25;;;-147.06;55.43
54453;BME280;40363;52.270;10.546;2023-03-18T11:13:58;75632.28;;;-147.06;56.12
54453;BME280;40363;52.270;10.546;2023-03-18T11:16:29;75652.84;;;-147.06;56.59
54453;BME280;40363;52.270;10.546;2023-03-18T11:18:58;75669.28;;;-147.06;57.07
54453;BME280;40363;52.270;10.546;2023-03-18T11:21:31;75648.72;;;-147.06;56.69
54453;BME280;40363;52.270;10.546;2023-03-18T11:23:59;75630.25;;;-147.06;56.52
54453;BME280;40363;52.270;10.546;2023-03-18T11:26:51;75617.91;;;-147.06;56.42
54453;BME280;40363;52.270;10.546;2023-03-18T11:29:21;75617.91;;;-147.06;56.25
54453;BME280;40363;52.270;10.546;2023-03-18T11:31:54;75619.97;;;-147.06;56.25
54453;BME280;40363;52.270;10.546;2023-03-18T11:34:23;75622.03;;;-147.06;56.22
54453;BME280;40363;52.270;10.546;2023-03-18T11:36:54;75605.56;;;-147.06;56.21
54453;BME280;40363;52.270;10.546;2023-03-18T11:39:24;75574.75;;;-147.06;55.42
54453;BME280;40363;52.270;10.546;2023-03-18T11:41:53;75593.25;;;-147.06;55.54
54453;BME280;40363;52.270;10.546;2023-03-18T11:44:26;75580.91;;;-147.06;55.63
54453;BME280;40363;52.270;10.546;2023-03-18T11:46:58;75576.81;;;-147.06;54.87
54453;BME280;40363;52.270;10.546;2023-03-18T11:49:27;75525.44;;;-147.06;53.89
54453;BME280;40363;52.270;10.546;2023-03-18T11:52:13;75523.38;;;-147.06;53.73
54453;BME280;40363;52.270;10.546;2023-03-18T11:55:03;75533.66;;;-147.06;53.55
54453;BME280;40363;52.270;10.546;2023-03-18T11:57:49;75560.38;;;-147.06;54.04
54453;BME280;40363;52.270;10.546;2023-03-18T12:00:27;75585.03;;;-147.06;54.60
54453;BME280;40363;52.270;10.546;2023-03-18T12:03:21;75595.31;;;-147.06;53.97
54453;BME280;40363;52.270;10.546;2023-03-18T12:06:00;75574.75;;;-147.06;54.07
54453;BME280;40363;52.270;10.546;2023-03-18T12:08:41;75580.91;;;-147.06;53.79
54453;BME280;40363;52.270;10.546;2023-03-18T12:11:12;75558.31;;;-147.06;52.87
54453;BME280;40363;52.270;10.546;2023-03-18T12:13:51;75533.66;;;-147.06;52.12
54453;BME280;40363;52.270;10.546;2023-03-18T12:16:30;75529.53;;;-147.06;52.13
54453;BME280;40363;52.270;10.546;2023-03-18T12:19:19;75523.38;;;-147.06;52.05
54453;BME280;40363;52.270;10.546;2023-03-18T12:22:04;75515.16;;;-147.06;52.05
54453;BME280;40363;52.270;10.546;2023-03-18T12:24:50;75506.94;;;-147.06;51.53
54453;BME280;40363;52.270;10.546;2023-03-18T12:27:28;75511.06;;;-147.06;51.47
54453;BME280;40363;52.270;10.546;2023-03-18T12:30:10;75504.88;;;-147.06;51.26
54453;BME280;40363;52.270;10.546;2023-03-18T12:32:49;75467.91;;;-147.06;50.91
54453;BME280;40363;52.270;10.546;2023-03-18T12:35:34;75445.31;;;-147.06;50.32
54453;BME280;40363;52.270;10.546;2023-03-18T12:38:34;75445.31;;;-147.06;49.58
54453;BME280;40363;52.270;10.546;2023-03-18T12:41:06;75445.31;;;-147.06;49.37
54453;BME280;40363;52.270;10.546;2023-03-18T12:43:50;75449.41;;;-147.06;49.37
54453;BME280;40363;52.270;10.546;2023-03-18T12:46:24;75437.06;;;-147.06;48.86
54453;BME280;40363;52.270;10.546;2023-03-18T12:48:57;75461.75;;;-147.06;48.80